Time;durP1;ratioP1;P1;durP2;ratioP2;P2;SDS_P1;SDS_P2;PMS_P1;PMS_P2;Temp;Humidity;BMP_temperature;BMP_pressure;BME280_temperature;BME280_humidity;BME280_pressure;Samples;Min_cycle;Max_cycle;Signal;HPM_P1;HPM_P2
2023/03/30 00:01:13;;;;;;;7.80;1.70;;;;;;;12.01;80.99;98512.94;5041966;28;20068;-46
2023/03/30 00:03:42;;;;;;;3.97;0.98;;;;;;;11.98;81.03;98506.13;5036252;28;20071;-48
2023/03/30 00:06:11;;;;;;;8.65;1.80;;;;;;;12.02;80.32;98499.91;5040033;28;20527;-50
2023/03/30 00:08:37;;;;;;;5.30;2.00;;;;;;;12.01;81.43;98508.63;5037198;28;20053;-51
2023/03/30 00:11:12;;;;;;;10.50;1.95;;;;;;;12.01;80.77;98503.44;5047545;28;20048;-49
2023/03/30 00:13:39;;;;;;;13.65;1.83;;;;;;;12.02;80.04;98499.09;5041656;28;20061;-48
2023/03/30 00:16:08;;;;;;;4.07;1.23;;;;;;;11.98;81.29;98494.88;5040239;28;20049;-49
2023/03/30 00:18:38;;;;;;;5.07;1.35;;;;;;;11.98;81.10;98502.66;5042345;28;20053;-48
2023/03/30 00:21:08;;;;;;;6.22;1.67;;;;;;;11.97;80.86;98496.66;5043028;28;20407;-48
2023/03/30 00:23:38;;;;;;;5.38;1.08;;;;;;;11.94;81.11;98497.59;5045717;28;20064;-49
2023/03/30 00:26:07;;;;;;;11.15;1.40;;;;;;;11.96;79.93;98500.16;5036468;28;20037;-46
2023/03/30 00:28:36;;;;;;;7.90;1.90;;;;;;;11.96;80.13;98505.34;5033437;28;20046;-48
2023/03/30 00:31:04;;;;;;;7.18;1.75;;;;;;;11.92;80.40;98493.38;5034475;28;20052;-46
2023/03/30 00:33:32;;;;;;;9.13;1.58;;;;;;;11.95;79.98;98494.09;5036170;28;20049;-51
2023/03/30 00:36:14;;;;;;;10.38;1.70;;;;;;;11.94;81.13;98501.94;5039958;28;20060;-49
2023/03/30 00:38:44;;;;;;;8.13;2.15;;;;;;;11.93;79.95;98505.44;5039902;28;20052;-50
2023/03/30 00:41:12;;;;;;;6.68;1.25;;;;;;;11.90;80.09;98495.16;5044924;28;20548;-49
2023/03/30 00:44:01;;;;;;;8.25;1.25;;;;;;;11.83;80.20;98490.16;5046185;28;20155;-47
2023/03/30 00:46:31;;;;;;;10.60;1.52;;;;;;;11.90;79.96;98497.75;5041521;28;20041;-51
2023/03/30 00:49:04;;;;;;;4.93;1.45;;;;;;;11.89;79.81;98493.47;5036407;28;20180;-51
2023/03/30 00:51:39;;;;;;;9.20;1.48;;;;;;;11.88;79.62;98496.94;5046323;28;20060;-50
2023/03/30 00:54:13;;;;;;;7.00;1.27;;;;;;;11.86;80.16;98483.19;5044575;28;20060;-49
2023/03/30 00:56:41;;;;;;;11.88;1.67;;;;;;;11.84;81.05;98485.81;5044101;28;20045;-50
2023/03/30 00:59:09;;;;;;;13.20;1.48;;;;;;;11.86;80.65;98483.19;5035193;28;20055;-50
2023/03/30 01:01:37;;;;;;;15.70;1.88;;;;;;;11.86;81.06;98476.25;5040793;28;20048;-48
2023/03/30 01:04:07;;;;;;;12.50;1.45;;;;;;;11.84;80.08;98478.03;5031595;28;20068;-51
2023/03/30 01:06:35;;;;;;;8.60;1.42;;;;;;;11.79;80.04;98467.81;5038604;28;20105;-51
2023/03/30 01:09:02;;;;;;;9.05;1.40;;;;;;;11.78;81.18;98481.69;5042558;28;20056;-48
2023/03/30 01:11:28;;;;;;;8.45;1.58;;;;;;;11.77;79.68;98469.63;5037602;28;20068;-52
2023/03/30 01:14:00;;;;;;;7.85;1.63;;;;;;;11.75;81.04;98471.41;5035624;28;20077;-48
2023/03/30 01:19:42;;;;;;;9.88;2.65;;;;;;;11.62;79.89;98475.31;5072948;27;20394;-51
2023/03/30 01:25:26;;;;;;;10.48;2.10;;;;;;;11.76;78.35;98480.88;5069890;27;20407;-48
2023/03/30 01:31:06;;;;;;;7.43;1.48;;;;;;;11.38;78.71;98493.34;4998578;27;20407;-51
2023/03/30 01:34:13;;;;;;;7.13;2.92;;;;;;;11.24;78.10;98476.47;4979780;28;20464;-51
2023/03/30 01:47:59;;;;;;;4.93;1.45;;;;;;;11.08;78.16;98455.34;5050376;27;20960;-50
2023/03/30 01:50:37;;;;;;;6.50;0.80;;;;;;;11.05;77.21;98461.47;5006244;28;20065;-51
2023/03/30 01:53:14;;;;;;;5.30;1.10;;;;;;;10.98;77.79;98462.53;5031519;28;20053;-50
2023/03/30 01:58:42;;;;;;;4.05;0.90;;;;;;;10.89;77.79;98470.59;5049703;27;20409;-50
2023/03/30 02:01:13;;;;;;;7.55;1.38;;;;;;;10.85;77.47;98474.19;5018884;28;20041;-50
2023/03/30 02:03:44;;;;;;;7.60;1.58;;;;;;;10.87;77.77;98464.59;5020320;28;20049;-50
2023/03/30 02:06:25;;;;;;;3.55;0.43;;;;;;;10.87;77.98;98472.38;5018160;28;20053;-50
2023/03/30 02:08:54;;;;;;;2.22;0.60;;;;;;;10.88;76.97;98474.09;5018694;28;20144;-52
2023/03/30 02:11:24;;;;;;;4.25;1.02;;;;;;;10.83;76.62;98475.94;5014432;28;20056;-49
2023/03/30 02:13:57;;;;;;;5.97;1.25;;;;;;;10.86;76.61;98473.28;5019348;28;20061;-52
2023/03/30 02:16:34;;;;;;;6.95;1.02;;;;;;;10.81;76.62;98476.03;5017871;28;20104;-50
2023/03/30 02:19:01;;;;;;;7.53;1.88;;;;;;;10.80;77.43;98466.53;5017854;28;20084;-48
2023/03/30 02:21:28;;;;;;;7.18;1.38;;;;;;;10.76;77.23;98470.09;5016463;28;20134;-52
2023/03/30 02:23:57;;;;;;;5.60;0.50;;;;;;;10.77;76.33;98470.06;5016619;28;20512;-52
2023/03/30 02:26:26;;;;;;;6.10;0.82;;;;;;;10.72;76.19;98469.38;5018533;28;21276;-50
2023/03/30 02:28:52;;;;;;;8.75;1.00;;;;;;;10.75;75.94;98463.25;5018736;28;20076;-48
2023/03/30 02:31:19;;;;;;;6.15;1.33;;;;;;;10.73;76.10;98471.06;5020341;28;20073;-49
2023/03/30 02:34:20;;;;;;;6.30;1.20;;;;;;;10.69;76.66;98464.25;5014756;28;20060;-50
2023/03/30 02:37:06;;;;;;;4.35;0.70;;;;;;;10.66;76.51;98470.38;5018373;28;20563;-50
2023/03/30 02:53:06;;;;;;;3.15;1.98;;;;;;;10.57;75.34;98487.91;5026813;28;20400;-52
2023/03/30 02:55:40;;;;;;;6.60;1.92;;;;;;;10.53;76.14;98490.59;4990712;28;20051;-48
2023/03/30 02:58:16;;;;;;;2.88;1.45;;;;;;;10.53;75.41;98492.31;5000203;28;20053;-50
2023/03/30 03:00:51;;;;;;;8.73;1.98;;;;;;;10.51;76.14;98494.13;5000442;28;20502;-50
2023/03/30 03:03:24;;;;;;;9.40;2.03;;;;;;;10.54;75.80;98486.28;5000871;28;20550;-51
2023/03/30 03:05:52;;;;;;;5.80;0.82;;;;;;;10.52;75.17;98488.91;4989338;28;20548;-49
2023/03/30 03:08:23;;;;;;;6.38;0.73;;;;;;;10.50;75.37;98480.31;4998470;28;20715;-48
2023/03/30 03:10:50;;;;;;;2.60;0.70;;;;;;;10.49;75.68;98498.47;4990078;28;20634;-47
2023/03/30 03:13:19;;;;;;;5.10;2.22;;;;;;;10.37;74.91;98502.22;4991250;28;20050;-49
2023/03/30 03:15:48;;;;;;;4.15;1.77;;;;;;;10.43;75.76;98506.41;4989566;28;20050;-48
2023/03/30 03:18:15;;;;;;;4.18;2.42;;;;;;;10.42;75.62;98508.13;5028858;28;20160;-48
2023/03/30 03:20:41;;;;;;;4.68;1.98;;;;;;;10.46;75.76;98499.41;4994187;28;20053;-48
2023/03/30 03:23:08;;;;;;;9.20;1.95;;;;;;;10.44;75.47;98511.53;5025020;28;20493;-47
2023/03/30 03:25:35;;;;;;;8.30;2.28;;;;;;;10.36;75.68;98508.28;5001028;28;20542;-47
2023/03/30 03:28:02;;;;;;;5.93;1.80;;;;;;;10.34;74.75;98510.06;5000518;28;20070;-49
2023/03/30 03:30:28;;;;;;;4.55;2.60;;;;;;;10.28;75.53;98509.34;4995583;28;20153;-47
2023/03/30 03:32:55;;;;;;;2.38;1.80;;;;;;;10.24;75.59;98510.28;4997570;28;20090;-49
2023/03/30 03:35:22;;;;;;;8.15;1.98;;;;;;;10.19;75.88;98521.66;4996367;28;20158;-49
2023/03/30 03:37:49;;;;;;;5.68;2.00;;;;;;;10.14;75.67;98524.38;4998050;28;20054;-48
2023/03/30 03:40:16;;;;;;;3.70;1.88;;;;;;;10.10;74.99;98522.75;4996297;28;20533;-49
2023/03/30 03:42:43;;;;;;;7.53;1.55;;;;;;;10.06;75.59;98526.31;4989883;28;20078;-50
2023/03/30 03:45:10;;;;;;;6.00;2.25;;;;;;;10.02;75.62;98531.56;4997092;28;20050;-51
2023/03/30 03:47:36;;;;;;;5.18;0.40;;;;;;;9.98;75.85;98534.25;4993655;28;20723;-49
2023/03/30 03:50:08;;;;;;;4.25;2.25;;;;;;;9.90;76.25;98537.03;4991006;28;20696;-47
2023/03/30 03:52:35;;;;;;;6.38;1.92;;;;;;;9.85;75.40;98536.28;5005573;28;20049;-49
2023/03/30 03:55:03;;;;;;;8.13;2.28;;;;;;;9.81;76.09;98543.28;4995576;28;20058;-47
2023/03/30 03:57:30;;;;;;;3.25;1.67;;;;;;;9.76;75.94;98540.78;4991770;28;20070;-49
2023/03/30 03:59:58;;;;;;;7.28;0.73;;;;;;;9.75;75.76;98538.25;4998549;28;20680;-47
2023/03/30 04:02:26;;;;;;;13.57;3.25;;;;;;;9.76;75.59;98540.78;4990800;28;20078;-49
2023/03/30 04:04:53;;;;;;;11.15;2.47;;;;;;;9.71;76.23;98542.66;4976135;28;20058;-51
2023/03/30 04:07:20;;;;;;;7.88;2.35;;;;;;;9.69;75.84;98539.22;4981718;28;20550;-49
2023/03/30 04:09:47;;;;;;;5.63;2.40;;;;;;;9.65;76.01;98537.59;4986739;28;20081;-47
2023/03/30 04:12:13;;;;;;;3.20;2.85;;;;;;;9.63;75.96;98541.97;4974310;28;20042;-50
2023/03/30 04:14:40;;;;;;;6.43;1.83;;;;;;;9.62;75.93;98540.25;4988351;28;20051;-48
2023/03/30 04:17:06;;;;;;;9.70;2.78;;;;;;;9.59;76.25;98545.53;4978679;28;20069;-48
2023/03/30 04:19:34;;;;;;;4.95;2.35;;;;;;;9.48;75.89;98546.59;4979944;28;20062;-49
2023/03/30 04:22:05;;;;;;;5.40;2.30;;;;;;;9.47;76.10;98542.31;4980319;28;20050;-50
2023/03/30 04:24:34;;;;;;;;;;;;;;;9.37;76.32;98533.06;4983795;28;20051;-46
2023/03/30 04:27:01;;;;;;;5.30;2.60;;;;;;;9.41;75.95;98545.03;4978101;28;19926;-47
2023/03/30 04:29:28;;;;;;;7.35;2.33;;;;;;;9.43;76.11;98548.44;4981254;28;20067;-48
2023/03/30 04:31:55;;;;;;;6.55;2.65;;;;;;;9.39;76.46;98551.97;4976846;28;20050;-50
2023/03/30 04:34:22;;;;;;;8.82;2.10;;;;;;;9.35;75.86;98555.50;4976697;28;20042;-48
2023/03/30 04:36:49;;;;;;;5.82;2.08;;;;;;;9.41;76.40;98555.38;4981415;28;20093;-50
2023/03/30 04:39:17;;;;;;;10.65;1.60;;;;;;;9.31;76.21;98565.06;4983320;28;20494;-50
2023/03/30 04:41:44;;;;;;;12.20;2.05;;;;;;;9.39;76.05;98557.13;4974107;28;20061;-49
2023/03/30 04:44:11;;;;;;;5.70;2.83;;;;;;;9.38;76.22;98560.59;4977427;28;20061;-50
2023/03/30 04:46:39;;;;;;;7.18;2.25;;;;;;;9.38;76.03;98555.44;4977512;28;20088;-49
2023/03/30 04:49:05;;;;;;;8.45;2.53;;;;;;;9.33;76.08;98559.88;4980810;28;20046;-51
2023/03/30 04:51:32;;;;;;;6.88;0.85;;;;;;;9.36;75.82;98552.06;4975277;28;20611;-50
2023/03/30 04:53:58;;;;;;;5.03;1.98;;;;;;;9.35;76.12;98560.66;4983180;28;20073;-49
2023/03/30 04:56:26;;;;;;;5.45;2.45;;;;;;;9.34;76.40;98564.13;4979030;28;20145;-49
2023/03/30 04:58:53;;;;;;;8.35;2.22;;;;;;;9.33;76.31;98568.47;4984341;28;20053;-46
2023/03/30 05:01:20;;;;;;;5.15;1.90;;;;;;;9.31;76.40;98569.38;4980816;28;20424;-48
2023/03/30 05:03:47;;;;;;;15.10;2.70;;;;;;;9.33;76.55;98570.19;4977449;28;20133;-48
2023/03/30 05:06:13;;;;;;;5.75;2.17;;;;;;;9.31;76.80;98577.97;4974831;28;20105;-50
2023/03/30 05:08:40;;;;;;;8.55;2.45;;;;;;;9.29;76.70;98577.16;4974417;28;20086;-49
2023/03/30 05:11:07;;;;;;;6.55;1.02;;;;;;;9.30;76.85;98585.75;4981021;28;20610;-50
2023/03/30 05:13:34;;;;;;;6.50;1.80;;;;;;;9.30;76.54;98589.22;4978547;28;20073;-50
2023/03/30 05:16:01;;;;;;;8.05;1.92;;;;;;;9.33;76.81;98598.63;4981194;28;20101;-49
2023/03/30 05:18:27;;;;;;;5.60;2.55;;;;;;;9.34;76.81;98605.47;4978673;28;20045;-49
2023/03/30 05:20:57;;;;;;;8.18;1.23;;;;;;;9.38;76.91;98602.81;4982120;28;22227;-50
2023/03/30 05:23:24;;;;;;;8.57;2.17;;;;;;;9.39;76.92;98608.81;4979060;28;20058;-50
2023/03/30 05:25:51;;;;;;;7.03;2.35;;;;;;;9.39;76.91;98608.81;4979272;28;20053;-50
2023/03/30 05:28:18;;;;;;;8.05;2.58;;;;;;;9.41;76.98;98608.78;4986724;28;20099;-48
2023/03/30 05:30:45;;;;;;;5.22;2.30;;;;;;;9.39;77.22;98613.97;4978907;28;20598;-48
2023/03/30 05:33:12;;;;;;;10.23;3.10;;;;;;;9.42;77.48;98608.75;4980366;28;20175;-48
2023/03/30 05:35:39;;;;;;;8.23;2.83;;;;;;;9.38;77.71;98613.16;4982133;28;20074;-48
2023/03/30 05:38:06;;;;;;;10.05;2.75;;;;;;;9.41;77.41;98617.41;4978288;28;20553;-48
2023/03/30 05:40:33;;;;;;;3.72;2.30;;;;;;;9.40;77.58;98620.88;4978711;28;20046;-49
2023/03/30 05:43:00;;;;;;;9.45;2.35;;;;;;;9.39;77.41;98614.84;4980007;28;20042;-48
2023/03/30 05:45:26;;;;;;;14.38;2.92;;;;;;;9.38;77.55;98620.03;4982706;28;20129;-48
2023/03/30 05:47:53;;;;;;;8.90;2.88;;;;;;;9.36;77.84;98620.06;4978125;28;20109;-48
2023/03/30 05:50:20;;;;;;;8.40;2.75;;;;;;;9.35;77.93;98622.69;4979361;28;20518;-51
2023/03/30 05:52:48;;;;;;;7.60;2.42;;;;;;;9.32;77.88;98627.94;4981840;28;20477;-50
2023/03/30 05:55:15;;;;;;;7.50;2.53;;;;;;;9.32;78.02;98635.69;4978617;28;20078;-49
2023/03/30 05:57:41;;;;;;;11.88;3.50;;;;;;;9.32;77.84;98639.09;4980836;28;20042;-47
2023/03/30 06:00:10;;;;;;;13.52;2.65;;;;;;;9.32;78.30;98648.59;4978519;28;20105;-49
2023/03/30 06:02:37;;;;;;;6.95;2.75;;;;;;;9.29;78.24;98648.66;4983051;28;20100;-48
2023/03/30 06:05:04;;;;;;;11.80;2.80;;;;;;;9.31;78.08;98649.47;4973755;28;20062;-48
2023/03/30 06:07:31;;;;;;;6.38;1.70;;;;;;;9.31;78.41;98652.03;4974691;28;20062;-47
2023/03/30 06:10:00;;;;;;;7.88;2.40;;;;;;;9.35;78.08;98649.38;4973140;28;20101;-49
2023/03/30 06:12:26;;;;;;;7.40;2.60;;;;;;;9.36;78.32;98645.91;4976212;28;20542;-47
2023/03/30 06:14:53;;;;;;;7.50;2.53;;;;;;;9.38;78.18;98658.81;4979598;28;20653;-49
2023/03/30 06:17:20;;;;;;;11.43;3.30;;;;;;;9.44;78.14;98658.69;4974950;28;20077;-49
2023/03/30 06:19:47;;;;;;;9.73;2.78;;;;;;;9.42;78.23;98659.59;4975945;28;20541;-51
2023/03/30 06:22:13;;;;;;;7.03;2.28;;;;;;;9.45;78.30;98664.69;4977578;28;20074;-51
2023/03/30 06:24:40;;;;;;;13.00;4.18;;;;;;;9.45;78.63;98660.38;4977137;28;20108;-49
2023/03/30 06:27:07;;;;;;;7.97;2.53;;;;;;;9.46;78.77;98662.06;4975875;28;20102;-51
2023/03/30 06:29:33;;;;;;;7.65;2.53;;;;;;;9.46;78.94;98672.41;4976917;28;20125;-50
2023/03/30 06:32:02;;;;;;;7.95;2.35;;;;;;;9.50;78.85;98673.22;4973681;28;20494;-49
2023/03/30 06:34:29;;;;;;;11.10;2.45;;;;;;;9.54;79.10;98671.41;4975030;28;20050;-46
2023/03/30 06:36:56;;;;;;;7.10;2.20;;;;;;;9.54;78.97;98668.81;4977999;28;20050;-48
2023/03/30 06:39:24;;;;;;;8.23;3.47;;;;;;;9.59;79.57;98672.19;4970842;28;20046;-48
2023/03/30 06:41:50;;;;;;;9.18;4.25;;;;;;;9.63;79.07;98669.47;4978462;28;20362;-49
2023/03/30 06:44:18;;;;;;;12.15;2.38;;;;;;;9.67;79.28;98665.13;4971659;28;20050;-50
2023/03/30 06:46:45;;;;;;;6.13;3.58;;;;;;;9.72;79.58;98672.75;4974154;28;20046;-48
2023/03/30 06:49:12;;;;;;;11.15;2.35;;;;;;;9.80;79.17;98670.00;4975541;28;20097;-49
2023/03/30 06:51:40;;;;;;;4.63;1.80;;;;;;;9.83;78.91;98675.13;4973571;28;20062;-47
2023/03/30 06:54:07;;;;;;;10.10;2.72;;;;;;;9.90;79.51;98681.88;4978789;28;20078;-50
2023/03/30 06:56:34;;;;;;;10.07;2.85;;;;;;;10.02;78.74;98691.94;4977270;28;20108;-49
2023/03/30 06:59:01;;;;;;;13.50;2.97;;;;;;;10.10;78.88;98696.91;4968896;28;20392;-48
2023/03/30 07:01:28;;;;;;;13.88;2.03;;;;;;;10.20;78.76;98689.78;4974243;28;20091;-52
2023/03/30 07:03:55;;;;;;;9.40;2.28;;;;;;;10.29;78.28;98705.13;4974653;28;20039;-52
2023/03/30 07:06:23;;;;;;;15.02;2.80;;;;;;;10.38;78.34;98701.47;4977293;28;20057;-48
2023/03/30 07:08:51;;;;;;;16.30;3.40;;;;;;;10.53;78.40;98708.06;4964543;28;20051;-51
2023/03/30 07:11:17;;;;;;;20.08;3.58;;;;;;;10.73;79.30;98714.47;4973960;28;20459;-49
2023/03/30 07:13:44;;;;;;;17.85;3.00;;;;;;;10.96;78.25;98717.38;4974509;28;20057;-47
2023/03/30 07:16:11;;;;;;;12.05;3.15;;;;;;;11.05;77.55;98702.44;4978396;28;20702;-49
2023/03/30 07:18:38;;;;;;;12.90;3.35;;;;;;;11.06;78.26;98713.66;4972734;28;20464;-51
2023/03/30 07:21:05;;;;;;;19.95;2.88;;;;;;;11.02;77.35;98715.47;4975401;28;20049;-47
2023/03/30 07:23:32;;;;;;;10.18;3.13;;;;;;;11.03;76.69;98712.00;4974674;28;20073;-49
2023/03/30 07:25:59;;;;;;;11.43;2.42;;;;;;;11.03;77.21;98717.19;4975551;28;20039;-52
2023/03/30 07:28:26;;;;;;;16.52;4.00;;;;;;;11.10;76.68;98722.19;4974803;28;20140;-51
2023/03/30 07:30:53;;;;;;;7.25;2.78;;;;;;;11.14;76.97;98718.63;4971150;28;20069;-49
2023/03/30 07:33:20;;;;;;;14.93;1.42;;;;;;;11.12;77.44;98725.59;4966886;28;20465;-47
2023/03/30 07:35:48;;;;;;;22.00;2.95;;;;;;;11.04;76.88;98724.06;4976707;28;20491;-50
2023/03/30 07:38:15;;;;;;;15.75;2.95;;;;;;;11.01;77.65;98723.28;4973569;28;20943;-48
2023/03/30 07:40:42;;;;;;;11.00;3.22;;;;;;;10.98;77.07;98729.38;4974283;28;20142;-49
2023/03/30 07:43:08;;;;;;;17.85;2.72;;;;;;;11.00;77.04;98732.81;4977905;28;20102;-49
2023/03/30 07:45:35;;;;;;;11.95;1.60;;;;;;;11.14;76.70;98724.66;4982409;28;20439;-46
2023/03/30 07:48:05;;;;;;;12.13;2.38;;;;;;;11.47;76.95;98733.31;4972113;28;20059;-51
2023/03/30 07:50:31;;;;;;;11.50;3.47;;;;;;;11.91;75.98;98740.72;4964475;28;20043;-48
2023/03/30 07:52:58;;;;;;;10.85;2.30;;;;;;;11.98;76.48;98731.84;4969707;28;20173;-49
2023/03/30 07:55:27;;;;;;;12.43;2.60;;;;;;;11.95;75.76;98738.00;4968873;28;20156;-49
2023/03/30 07:57:56;;;;;;;3.33;2.20;;;;;;;11.90;75.44;98744.22;4967606;28;20057;-48
2023/03/30 08:00:23;;;;;;;8.98;2.75;;;;;;;11.91;75.13;98745.91;4975281;28;20173;-49
2023/03/30 08:02:50;;;;;;;11.98;2.55;;;;;;;11.88;75.69;98748.59;4988807;28;20096;-49
2023/03/30 08:05:17;;;;;;;8.98;2.28;;;;;;;11.95;76.55;98748.38;4972698;28;20050;-51
2023/03/30 08:07:44;;;;;;;11.98;2.55;;;;;;;12.00;76.37;98750.84;4962073;28;20057;-50
2023/03/30 08:10:11;;;;;;;11.15;3.08;;;;;;;12.08;75.43;98748.91;4977770;28;20042;-47
2023/03/30 08:12:40;;;;;;;7.00;2.72;;;;;;;12.13;75.40;98746.13;4983863;28;20050;-50
2023/03/30 08:15:07;;;;;;;9.40;2.13;;;;;;;12.36;75.12;98756.75;4983651;28;20689;-49
2023/03/30 08:17:34;;;;;;;9.85;2.58;;;;;;;12.45;74.46;98761.63;4977880;28;20047;-49
2023/03/30 08:20:01;;;;;;;9.23;2.67;;;;;;;12.52;75.00;98763.16;4964099;28;20058;-53
2023/03/30 08:22:27;;;;;;;7.72;2.13;;;;;;;12.60;75.35;98771.53;4970685;28;20053;-50
2023/03/30 08:24:55;;;;;;;7.72;0.70;;;;;;;12.63;74.73;98772.38;4981940;28;20466;-48
2023/03/30 08:27:22;;;;;;;7.38;2.45;;;;;;;12.68;74.40;98773.06;4978587;28;20054;-53
2023/03/30 08:29:49;;;;;;;5.90;2.53;;;;;;;12.71;74.18;98758.19;4970994;28;20102;-50
2023/03/30 08:32:16;;;;;;;9.10;1.05;;;;;;;12.87;75.01;98765.50;4971858;28;20580;-52
2023/03/30 08:34:43;;;;;;;6.00;2.38;;;;;;;13.22;74.33;98762.63;4961996;28;20789;-48
2023/03/30 08:37:11;;;;;;;11.10;2.20;;;;;;;13.61;73.61;98766.50;4994378;28;20154;-50
2023/03/30 08:39:38;;;;;;;11.10;3.35;;;;;;;13.77;72.97;98773.78;4979346;28;20050;-51
2023/03/30 08:42:20;;;;;;;7.82;2.75;;;;;;;13.94;72.32;98770.53;4979044;28;20057;-49
2023/03/30 08:44:52;;;;;;;7.82;2.67;;;;;;;13.96;71.85;98773.94;4975500;28;20104;-48
2023/03/30 08:47:30;;;;;;;13.57;2.13;;;;;;;13.90;72.15;98772.41;4980989;28;20137;-52
2023/03/30 08:50:07;;;;;;;7.95;2.58;;;;;;;13.80;71.84;98774.50;4980599;28;20054;-50
2023/03/30 08:52:35;;;;;;;9.98;3.15;;;;;;;13.69;72.69;98781.84;4971140;28;20076;-48
2023/03/30 08:55:03;;;;;;;9.40;2.75;;;;;;;13.62;72.85;98789.88;4975004;28;20061;-47
2023/03/30 08:57:38;;;;;;;12.05;2.88;;;;;;;13.55;72.31;98780.59;4971841;28;20078;-48
2023/03/30 09:02:46;;;;;;;6.70;1.48;;;;;;;13.49;72.58;98791.22;5049599;27;20401;-51
2023/03/30 09:08:11;;;;;;;11.80;1.25;;;;;;;13.40;72.49;98781.13;5086619;27;21076;-50
2023/03/30 09:10:43;;;;;;;8.65;1.55;;;;;;;13.50;73.18;98792.91;5050187;28;24415;-48
2023/03/30 09:13:15;;;;;;;8.05;1.58;;;;;;;13.74;73.69;98791.19;5034344;28;20099;-51
2023/03/30 09:15:51;;;;;;;7.68;1.35;;;;;;;14.16;72.63;98799.22;5034383;28;20100;-55
2023/03/30 09:18:24;;;;;;;8.05;1.33;;;;;;;14.29;71.87;98801.38;5036970;28;20049;-51
2023/03/30 09:20:55;;;;;;;5.68;0.40;;;;;;;14.68;71.64;98797.25;5041325;28;20050;-52
2023/03/30 09:23:23;;;;;;;3.53;0.65;;;;;;;14.69;71.08;98804.19;5040819;28;20106;-53
2023/03/30 09:31:10;;;;;;;4.57;1.20;;;;;;;14.19;71.22;98811.28;5082388;27;20429;-51
2023/03/30 09:38:52;;;;;;;9.52;1.88;;;;;;;14.60;73.02;98811.47;5027230;27;20429;-52
2023/03/30 09:41:31;;;;;;;7.63;1.50;;;;;;;14.84;71.56;98808.81;5021653;28;20420;-51
2023/03/30 09:43:59;;;;;;;9.18;1.15;;;;;;;14.80;71.19;98817.66;5010063;28;20572;-51
2023/03/30 09:46:25;;;;;;;6.60;0.88;;;;;;;14.68;70.26;98813.75;5004013;28;20053;-52
2023/03/30 09:48:53;;;;;;;5.00;0.95;;;;;;;14.62;71.00;98814.84;5017978;28;20052;-48
2023/03/30 09:54:05;;;;;;;10.45;1.73;;;;;;;14.78;70.29;98814.25;5066451;27;20405;-49
2023/03/30 09:56:45;;;;;;;11.52;1.75;;;;;;;15.53;71.34;98811.19;5049049;28;20041;-47
2023/03/30 10:02:18;;;;;;;8.25;1.02;;;;;;;16.29;68.19;98820.09;5053537;27;20398;-49
2023/03/30 10:07:35;;;;;;;8.63;2.72;;;;;;;16.53;67.16;98815.47;5039058;28;21081;-50
2023/03/30 10:15:42;;;;;;;6.60;0.98;;;;;;;16.91;66.07;98822.41;5049496;28;20751;-49
2023/03/30 10:18:30;;;;;;;6.00;0.80;;;;;;;16.79;64.58;98828.22;5017350;28;20045;-51
2023/03/30 10:21:04;;;;;;;6.38;1.02;;;;;;;16.89;66.10;98818.16;5013477;28;20080;-49
2023/03/30 10:23:38;;;;;;;7.60;1.10;;;;;;;17.23;66.17;98820.91;5016549;28;20121;-51
2023/03/30 10:26:14;;;;;;;8.20;1.75;;;;;;;17.39;64.12;98832.28;5014490;28;20046;-48
2023/03/30 10:28:55;;;;;;;6.85;1.17;;;;;;;17.33;63.76;98830.00;4998022;28;20136;-51
2023/03/30 10:31:26;;;;;;;10.32;1.20;;;;;;;17.30;63.18;98838.81;5004142;28;20077;-52
2023/03/30 10:33:56;;;;;;;10.50;1.95;;;;;;;17.08;63.16;98844.28;5006327;28;20038;-52
2023/03/30 10:36:29;;;;;;;7.15;1.48;;;;;;;16.87;62.82;98840.91;5003909;28;20914;-48
2023/03/30 10:39:05;;;;;;;4.60;1.05;;;;;;;16.68;64.11;98855.72;5010287;28;20050;-50
2023/03/30 10:41:33;;;;;;;9.43;1.38;;;;;;;16.60;64.96;98854.38;5008748;28;20100;-48
2023/03/30 10:44:25;;;;;;;5.40;0.80;;;;;;;16.75;65.35;98843.19;5006012;28;20069;-49
2023/03/30 10:46:55;;;;;;;10.77;2.25;;;;;;;16.90;64.23;98849.47;5001664;28;20468;-49
2023/03/30 10:57:15;;;;;;;9.70;2.90;;;;;;;17.64;62.85;98841.53;5062301;27;20390;-51
2023/03/30 11:00:17;;;;;;;6.55;2.10;;;;;;;17.59;60.60;98846.97;5018025;28;20045;-48
2023/03/30 11:03:23;;;;;;;8.57;2.47;;;;;;;17.64;61.04;98835.44;5018026;28;20135;-50
2023/03/30 11:05:53;;;;;;;7.30;2.40;;;;;;;17.82;62.44;98823.16;5016306;28;20041;-49
2023/03/30 11:08:26;;;;;;;10.63;3.00;;;;;;;17.75;61.49;98829.63;5043741;28;20136;-49
2023/03/30 11:10:56;;;;;;;6.35;2.58;;;;;;;17.62;61.04;98853.84;5017256;28;20100;-47
2023/03/30 11:13:30;;;;;;;10.45;3.42;;;;;;;17.24;61.14;98854.00;5015181;28;21505;-46
2023/03/30 11:16:03;;;;;;;12.40;2.47;;;;;;;16.85;62.36;98846.22;5019191;28;20045;-49
2023/03/30 11:21:33;;;;;;;9.55;1.88;;;;;;;16.90;65.37;98836.41;5035607;28;20415;-48
2023/03/30 11:24:08;;;;;;;8.48;2.22;;;;;;;16.90;65.32;98831.16;5011832;28;20057;-49
2023/03/30 11:26:44;;;;;;;8.50;1.70;;;;;;;16.95;65.75;98839.63;5000259;28;20077;-49
2023/03/30 11:31:56;;;;;;;10.13;1.38;;;;;;;16.56;64.31;98822.31;5025353;27;20393;-48
2023/03/30 11:34:47;;;;;;;10.85;2.42;;;;;;;16.44;64.73;98814.13;4992698;28;20051;-49
2023/03/30 11:40:22;;;;;;;14.05;1.85;;;;;;;16.60;64.96;98808.19;5039607;27;20390;-48
2023/03/30 11:42:52;;;;;;;12.90;2.08;;;;;;;16.69;65.73;98817.38;5033406;28;20056;-47
2023/03/30 11:45:43;;;;;;;15.07;1.98;;;;;;;16.79;65.89;98809.91;5037994;28;20686;-50
2023/03/30 11:48:39;;;;;;;13.05;1.63;;;;;;;16.93;65.40;98806.63;5032901;28;20049;-50
2023/03/30 11:54:34;;;;;;;8.20;3.28;;;;;;;17.07;63.76;98805.97;5074786;27;20386;-52
2023/03/30 12:08:12;;;;;;;8.25;1.00;;;;;;;17.31;61.65;98805.66;5106052;27;20391;-50
2023/03/30 12:10:40;;;;;;;5.15;1.65;;;;;;;17.24;61.54;98817.38;5044562;27;20042;-50
2023/03/30 12:13:12;;;;;;;9.73;1.63;;;;;;;17.09;59.33;98817.19;5042431;28;20045;-48
2023/03/30 12:21:31;;;;;;;8.75;3.00;;;;;;;17.28;60.88;98808.44;5047141;27;20398;-49
2023/03/30 12:24:12;;;;;;;7.00;2.50;;;;;;;17.33;59.86;98809.06;5015124;28;20486;-47
2023/03/30 12:26:39;;;;;;;10.95;2.45;;;;;;;17.42;60.63;98803.34;5000754;28;20050;-49
2023/03/30 12:29:12;;;;;;;11.07;2.90;;;;;;;17.43;60.11;98784.09;5000796;28;20126;-48
2023/03/30 12:34:39;;;;;;;5.13;0.90;;;;;;;17.33;58.13;98806.44;5089255;27;20941;-47
2023/03/30 12:37:13;;;;;;;9.93;1.20;;;;;;;17.44;59.34;98809.38;5079534;28;20097;-47
2023/03/30 12:42:26;;;;;;;9.10;0.80;;;;;;;17.40;58.56;98792.13;5103917;27;20392;-48
2023/03/30 12:51:15;;;;;;;11.23;1.52;;;;;;;17.67;58.14;98815.16;5061469;28;20395;-48
2023/03/30 12:59:07;;;;;;;9.32;1.50;;;;;;;17.53;56.71;98807.19;5028866;28;20398;-49
2023/03/30 13:04:37;;;;;;;11.02;1.60;;;;;;;17.38;57.12;98798.34;5051538;27;20884;-48
2023/03/30 13:07:07;;;;;;;8.57;1.75;;;;;;;17.39;57.95;98802.66;5038066;28;20112;-47
2023/03/30 13:09:52;;;;;;;7.97;1.42;;;;;;;17.49;57.67;98790.78;5028514;28;20412;-48
2023/03/30 13:20:35;;;;;;;6.55;1.27;;;;;;;17.71;57.11;98787.06;5041926;27;20420;-48
2023/03/30 13:29:00;;;;;;;6.63;2.15;;;;;;;17.70;56.87;98778.34;5032260;27;20409;-49
2023/03/30 13:34:37;;;;;;;10.20;1.23;;;;;;;17.70;57.12;98788.81;5030114;28;20405;-49
2023/03/30 13:50:52;;;;;;;9.05;1.65;;;;;;;17.49;57.30;98785.53;5074248;27;20417;-48
2023/03/30 13:53:19;;;;;;;5.85;0.93;;;;;;;17.57;56.01;98782.56;5023746;28;20944;-48
2023/03/30 13:55:48;;;;;;;10.93;1.17;;;;;;;17.77;57.36;98772.78;5022286;28;20072;-49
2023/03/30 13:58:21;;;;;;;5.38;1.30;;;;;;;17.78;56.55;98774.47;5019115;28;20046;-49
2023/03/30 14:03:49;;;;;;;7.32;2.00;;;;;;;17.72;55.95;98776.50;5060377;27;20392;-48
2023/03/30 14:06:20;;;;;;;5.22;1.35;;;;;;;17.69;56.00;98766.19;5045937;28;20077;-49
2023/03/30 14:08:49;;;;;;;9.20;0.95;;;;;;;17.62;55.08;98777.91;5031269;28;20049;-49
2023/03/30 14:11:20;;;;;;;6.70;1.15;;;;;;;17.51;55.68;98788.09;5049086;28;20098;-49
2023/03/30 14:13:51;;;;;;;6.55;1.08;;;;;;;17.50;56.19;98766.31;5080071;28;20052;-49
2023/03/30 14:16:21;;;;;;;8.32;1.20;;;;;;;17.44;56.24;98777.97;5047375;28;20048;-48
2023/03/30 14:18:48;;;;;;;4.50;1.40;;;;;;;17.41;56.42;98778.09;5032057;28;20591;-48
2023/03/30 14:21:20;;;;;;;5.55;1.00;;;;;;;17.46;56.27;98770.00;5034387;28;20103;-48
2023/03/30 14:23:51;;;;;;;7.72;1.35;;;;;;;17.55;56.38;98781.75;5061549;28;20050;-50
2023/03/30 14:26:23;;;;;;;6.30;1.48;;;;;;;17.59;56.12;98775.44;5019047;28;20295;-48